Check out our new PWSWeather beta!
PWSweather.com
Personal Weather Stations
Station Observations
K4FB1
Clubhouse Heritage, Lakeland, FL 33812

Clubhouse HeritageLakeland, FL 33812

Lat: 27.969224, Lon: -81.897769

Elevation: 145

Station Type: Davis Vantage Pro2

http://www.ClubhouseWX.com

High Low Average
Temperature 101.2°F38.4°C 72.1°F22.3°C 81.1°F27.3°C
Dew Point 78.8°F26.0°C 68.8°F20.4°C 73.6°F23.1°C
Winds 15.0 mph 24.1 kmh Calm Calm 2.0 mph E3.2 kmh E
Wind Gusts 30.0 mph48.3 kmh -- 6.0 mph9.7 kmh
Humidity 98% 40% 81%
Pressure 30.12 in1020.0 mb 30.01 in1016.3 mb -
Precipitation 0.30 in7.6 mm - -
Hour Temp Dew Point Humidity Winds Wind Gusts Pressure Precip Precip Rate Daily Precip Total
12:00 AM 78.8°F26.0°C 72.8°F22.7°C 82% 2.0 mph SE3.2 kmh SE 4.0 mph6.4 kmh 30.07 in1018.3 mb 0.00 in0.0 mm 0.00 in0.0 mm 0.00 in0.0 mm
12:05 AM 78.6°F25.9°C 72.6°F22.6°C 82% 2.0 mph SE3.2 kmh SE 4.0 mph6.4 kmh 30.07 in1018.3 mb 0.00 in0.0 mm 0.00 in0.0 mm 0.00 in0.0 mm
12:10 AM 78.4°F25.8°C 72.8°F22.7°C 83% 2.0 mph SE3.2 kmh SE 3.0 mph4.8 kmh 30.07 in1018.3 mb 0.00 in0.0 mm 0.00 in0.0 mm 0.00 in0.0 mm
12:15 AM 78.4°F25.8°C 72.8°F22.7°C 83% 1.0 mph SE1.6 kmh SE 3.0 mph4.8 kmh 30.07 in1018.3 mb 0.00 in0.0 mm 0.00 in0.0 mm 0.00 in0.0 mm
12:20 AM 78.2°F25.7°C 72.6°F22.6°C 83% 1.0 mph SE1.6 kmh SE 2.0 mph3.2 kmh 30.07 in1018.3 mb 0.00 in0.0 mm 0.00 in0.0 mm 0.00 in0.0 mm
12:25 AM 78.1°F25.6°C 72.5°F22.5°C 83% 1.0 mph SE1.6 kmh SE 3.0 mph4.8 kmh 30.07 in1018.3 mb 0.00 in0.0 mm 0.00 in0.0 mm 0.00 in0.0 mm
12:30 AM 77.9°F25.5°C 72.7°F22.6°C 84% 1.0 mph SE1.6 kmh SE 3.0 mph4.8 kmh 30.07 in1018.3 mb 0.00 in0.0 mm 0.00 in0.0 mm 0.00 in0.0 mm
12:35 AM 77.7°F25.4°C 72.5°F22.5°C 84% 1.0 mph SE1.6 kmh SE 2.0 mph3.2 kmh 30.06 in1017.9 mb 0.00 in0.0 mm 0.00 in0.0 mm 0.00 in0.0 mm
12:40 AM 77.6°F25.3°C 72.4°F22.4°C 84% Calm Calm 2.0 mph3.2 kmh 30.06 in1017.9 mb 0.00 in0.0 mm 0.00 in0.0 mm 0.00 in0.0 mm
12:45 AM 77.5°F25.3°C 72.3°F22.4°C 84% Calm Calm 1.0 mph1.6 kmh 30.06 in1017.9 mb 0.00 in0.0 mm 0.00 in0.0 mm 0.00 in0.0 mm
12:50 AM 77.3°F25.2°C 72.1°F22.3°C 84% Calm Calm 1.0 mph1.6 kmh 30.06 in1017.9 mb 0.00 in0.0 mm 0.00 in0.0 mm 0.00 in0.0 mm
12:55 AM 77.1°F25.1°C 72.2°F22.3°C 85% Calm Calm 1.0 mph1.6 kmh 30.06 in1017.9 mb 0.00 in0.0 mm 0.00 in0.0 mm 0.00 in0.0 mm
01:00 AM 76.8°F24.9°C 72.3°F22.4°C 86% Calm Calm 1.0 mph1.6 kmh 30.06 in1017.9 mb 0.00 in0.0 mm 0.00 in0.0 mm 0.00 in0.0 mm
01:05 AM 76.6°F24.8°C 72.1°F22.3°C 86% Calm Calm -- 30.06 in1017.9 mb 0.00 in0.0 mm 0.00 in0.0 mm 0.00 in0.0 mm
01:10 AM 76.4°F24.7°C 72.2°F22.3°C 87% Calm Calm 1.0 mph1.6 kmh 30.06 in1017.9 mb 0.00 in0.0 mm 0.00 in0.0 mm 0.00 in0.0 mm
01:15 AM 76.1°F24.5°C 71.9°F22.2°C 87% Calm Calm 1.0 mph1.6 kmh 30.06 in1017.9 mb 0.00 in0.0 mm 0.00 in0.0 mm 0.00 in0.0 mm
01:20 AM 75.9°F24.4°C 71.8°F22.1°C 87% Calm Calm 1.0 mph1.6 kmh 30.05 in1017.6 mb 0.00 in0.0 mm 0.00 in0.0 mm 0.00 in0.0 mm
01:25 AM 75.7°F24.3°C 71.9°F22.2°C 88% Calm Calm 1.0 mph1.6 kmh 30.05 in1017.6 mb 0.00 in0.0 mm 0.00 in0.0 mm 0.00 in0.0 mm
01:30 AM 75.5°F24.2°C 71.7°F22.1°C 88% Calm Calm 1.0 mph1.6 kmh 30.05 in1017.6 mb 0.00 in0.0 mm 0.00 in0.0 mm 0.00 in0.0 mm
01:35 AM 75.4°F24.1°C 71.9°F22.2°C 89% Calm Calm 1.0 mph1.6 kmh 30.05 in1017.6 mb 0.00 in0.0 mm 0.00 in0.0 mm 0.00 in0.0 mm
01:40 AM 75.3°F24.1°C 71.8°F22.1°C 89% Calm Calm 1.0 mph1.6 kmh 30.05 in1017.6 mb 0.00 in0.0 mm 0.00 in0.0 mm 0.00 in0.0 mm
01:45 AM 75.1°F23.9°C 72.0°F22.2°C 90% Calm Calm 1.0 mph1.6 kmh 30.05 in1017.6 mb 0.00 in0.0 mm 0.00 in0.0 mm 0.00 in0.0 mm
01:50 AM 75.0°F23.9°C 71.9°F22.2°C 90% Calm Calm 1.0 mph1.6 kmh 30.05 in1017.6 mb 0.00 in0.0 mm 0.00 in0.0 mm 0.00 in0.0 mm
01:55 AM 74.8°F23.8°C 71.7°F22.1°C 90% Calm Calm 1.0 mph1.6 kmh 30.05 in1017.6 mb 0.00 in0.0 mm 0.00 in0.0 mm 0.00 in0.0 mm
02:00 AM 74.7°F23.7°C 71.9°F22.2°C 91% Calm Calm 1.0 mph1.6 kmh 30.05 in1017.6 mb 0.00 in0.0 mm 0.00 in0.0 mm 0.00 in0.0 mm
02:05 AM 74.6°F23.7°C 71.8°F22.1°C 91% Calm Calm 1.0 mph1.6 kmh 30.05 in1017.6 mb 0.00 in0.0 mm 0.00 in0.0 mm 0.00 in0.0 mm
02:10 AM 74.5°F23.6°C 71.7°F22.1°C 91% Calm Calm 1.0 mph1.6 kmh 30.05 in1017.6 mb 0.00 in0.0 mm 0.00 in0.0 mm 0.00 in0.0 mm
02:15 AM 74.5°F23.6°C 72.0°F22.2°C 92% Calm Calm 1.0 mph1.6 kmh 30.05 in1017.6 mb 0.00 in0.0 mm 0.00 in0.0 mm 0.00 in0.0 mm
02:20 AM 74.3°F23.5°C 71.8°F22.1°C 92% Calm Calm 1.0 mph1.6 kmh 30.05 in1017.6 mb 0.00 in0.0 mm 0.00 in0.0 mm 0.00 in0.0 mm
02:25 AM 74.4°F23.6°C 71.9°F22.2°C 92% Calm Calm 1.0 mph1.6 kmh 30.05 in1017.6 mb 0.00 in0.0 mm 0.00 in0.0 mm 0.00 in0.0 mm
02:30 AM 74.3°F23.5°C 71.8°F22.1°C 92% Calm Calm 1.0 mph1.6 kmh 30.04 in1017.3 mb 0.00 in0.0 mm 0.00 in0.0 mm 0.00 in0.0 mm
02:35 AM 74.3°F23.5°C 72.1°F22.3°C 93% Calm Calm 1.0 mph1.6 kmh 30.04 in1017.3 mb 0.00 in0.0 mm 0.00 in0.0 mm 0.00 in0.0 mm
02:40 AM 74.2°F23.4°C 72.0°F22.2°C 93% Calm Calm -- 30.04 in1017.3 mb 0.00 in0.0 mm 0.00 in0.0 mm 0.00 in0.0 mm
02:45 AM 74.2°F23.4°C 72.0°F22.2°C 93% Calm Calm -- 30.04 in1017.3 mb 0.00 in0.0 mm 0.00 in0.0 mm 0.00 in0.0 mm
02:50 AM 74.1°F23.4°C 71.9°F22.2°C 93% Calm Calm -- 30.04 in1017.3 mb 0.00 in0.0 mm 0.00 in0.0 mm 0.00 in0.0 mm
02:55 AM 74.0°F23.3°C 72.2°F22.3°C 94% Calm Calm 1.0 mph1.6 kmh 30.04 in1017.3 mb 0.00 in0.0 mm 0.00 in0.0 mm 0.00 in0.0 mm
03:00 AM 74.0°F23.3°C 72.2°F22.3°C 94% Calm Calm 1.0 mph1.6 kmh 30.05 in1017.6 mb 0.00 in0.0 mm 0.00 in0.0 mm 0.00 in0.0 mm
03:05 AM 73.9°F23.3°C 72.1°F22.3°C 94% Calm Calm 1.0 mph1.6 kmh 30.05 in1017.6 mb 0.00 in0.0 mm 0.00 in0.0 mm 0.00 in0.0 mm
03:10 AM 73.9°F23.3°C 72.1°F22.3°C 94% Calm Calm 1.0 mph1.6 kmh 30.04 in1017.3 mb 0.00 in0.0 mm 0.00 in0.0 mm 0.00 in0.0 mm
03:15 AM 73.9°F23.3°C 72.1°F22.3°C 94% Calm Calm 1.0 mph1.6 kmh 30.04 in1017.3 mb 0.00 in0.0 mm 0.00 in0.0 mm 0.00 in0.0 mm
03:20 AM 73.9°F23.3°C 72.1°F22.3°C 94% Calm Calm 1.0 mph1.6 kmh 30.04 in1017.3 mb 0.00 in0.0 mm 0.00 in0.0 mm 0.00 in0.0 mm
03:25 AM 73.8°F23.2°C 72.0°F22.2°C 94% Calm Calm 1.0 mph1.6 kmh 30.05 in1017.6 mb 0.00 in0.0 mm 0.00 in0.0 mm 0.00 in0.0 mm
03:30 AM 73.7°F23.2°C 71.9°F22.2°C 94% Calm Calm -- 30.04 in1017.3 mb 0.00 in0.0 mm 0.00 in0.0 mm 0.00 in0.0 mm
03:35 AM 73.6°F23.1°C 71.8°F22.1°C 94% Calm Calm -- 30.04 in1017.3 mb 0.00 in0.0 mm 0.00 in0.0 mm 0.00 in0.0 mm
03:40 AM 73.5°F23.1°C 71.7°F22.1°C 94% Calm Calm -- 30.04 in1017.3 mb 0.00 in0.0 mm 0.00 in0.0 mm 0.00 in0.0 mm
03:45 AM 73.4°F23.0°C 71.9°F22.2°C 95% Calm Calm -- 30.04 in1017.3 mb 0.00 in0.0 mm 0.00 in0.0 mm 0.00 in0.0 mm
03:50 AM 73.4°F23.0°C 71.9°F22.2°C 95% Calm Calm -- 30.04 in1017.3 mb 0.00 in0.0 mm 0.00 in0.0 mm 0.00 in0.0 mm
03:55 AM 73.3°F22.9°C 71.8°F22.1°C 95% Calm Calm 1.0 mph1.6 kmh 30.04 in1017.3 mb 0.00 in0.0 mm 0.00 in0.0 mm 0.00 in0.0 mm
04:00 AM 73.4°F23.0°C 71.9°F22.2°C 95% Calm Calm 1.0 mph1.6 kmh 30.05 in1017.6 mb 0.00 in0.0 mm 0.00 in0.0 mm 0.00 in0.0 mm
04:05 AM 73.3°F22.9°C 71.8°F22.1°C 95% Calm Calm -- 30.05 in1017.6 mb 0.00 in0.0 mm 0.00 in0.0 mm 0.00 in0.0 mm
04:10 AM 73.2°F22.9°C 71.7°F22.1°C 95% Calm Calm -- 30.05 in1017.6 mb 0.00 in0.0 mm 0.00 in0.0 mm 0.00 in0.0 mm
04:15 AM 73.2°F22.9°C 71.7°F22.1°C 95% Calm Calm 1.0 mph1.6 kmh 30.04 in1017.3 mb 0.00 in0.0 mm 0.00 in0.0 mm 0.00 in0.0 mm
04:20 AM 73.2°F22.9°C 72.0°F22.2°C 96% Calm Calm 2.0 mph3.2 kmh 30.04 in1017.3 mb 0.00 in0.0 mm 0.00 in0.0 mm 0.00 in0.0 mm
04:25 AM 73.2°F22.9°C 72.0°F22.2°C 96% Calm Calm 2.0 mph3.2 kmh 30.04 in1017.3 mb 0.00 in0.0 mm 0.00 in0.0 mm 0.00 in0.0 mm
04:30 AM 73.2°F22.9°C 72.0°F22.2°C 96% Calm Calm 1.0 mph1.6 kmh 30.05 in1017.6 mb 0.00 in0.0 mm 0.00 in0.0 mm 0.00 in0.0 mm
04:35 AM 73.2°F22.9°C 72.0°F22.2°C 96% Calm Calm 1.0 mph1.6 kmh 30.05 in1017.6 mb 0.00 in0.0 mm 0.00 in0.0 mm 0.00 in0.0 mm
04:40 AM 73.3°F22.9°C 72.1°F22.3°C 96% Calm Calm 1.0 mph1.6 kmh 30.04 in1017.3 mb 0.00 in0.0 mm 0.00 in0.0 mm 0.00 in0.0 mm
04:45 AM 73.2°F22.9°C 72.0°F22.2°C 96% Calm Calm 1.0 mph1.6 kmh 30.04 in1017.3 mb 0.00 in0.0 mm 0.00 in0.0 mm 0.00 in0.0 mm
04:50 AM 73.1°F22.8°C 71.9°F22.2°C 96% Calm Calm 1.0 mph1.6 kmh 30.04 in1017.3 mb 0.00 in0.0 mm 0.00 in0.0 mm 0.00 in0.0 mm
04:55 AM 73.1°F22.8°C 71.9°F22.2°C 96% Calm Calm -- 30.05 in1017.6 mb 0.00 in0.0 mm 0.00 in0.0 mm 0.00 in0.0 mm
05:00 AM 73.1°F22.8°C 71.9°F22.2°C 96% Calm Calm 1.0 mph1.6 kmh 30.05 in1017.6 mb 0.00 in0.0 mm 0.00 in0.0 mm 0.00 in0.0 mm
05:05 AM 73.1°F22.8°C 71.9°F22.2°C 96% Calm Calm 1.0 mph1.6 kmh 30.05 in1017.6 mb 0.00 in0.0 mm 0.00 in0.0 mm 0.00 in0.0 mm
05:10 AM 73.0°F22.8°C 71.8°F22.1°C 96% Calm Calm -- 30.05 in1017.6 mb 0.00 in0.0 mm 0.00 in0.0 mm 0.00 in0.0 mm
05:15 AM 73.0°F22.8°C 71.8°F22.1°C 96% Calm Calm -- 30.05 in1017.6 mb 0.00 in0.0 mm 0.00 in0.0 mm 0.00 in0.0 mm
05:20 AM 73.0°F22.8°C 71.8°F22.1°C 96% Calm Calm 1.0 mph1.6 kmh 30.06 in1017.9 mb 0.00 in0.0 mm 0.00 in0.0 mm 0.00 in0.0 mm
05:25 AM 73.0°F22.8°C 71.8°F22.1°C 96% Calm Calm 1.0 mph1.6 kmh 30.06 in1017.9 mb 0.00 in0.0 mm 0.00 in0.0 mm 0.00 in0.0 mm
05:30 AM 72.9°F22.7°C 71.7°F22.1°C 96% Calm Calm -- 30.06 in1017.9 mb 0.00 in0.0 mm 0.00 in0.0 mm 0.00 in0.0 mm
05:35 AM 72.8°F22.7°C 71.6°F22.0°C 96% Calm Calm -- 30.06 in1017.9 mb 0.00 in0.0 mm 0.00 in0.0 mm 0.00 in0.0 mm
05:40 AM 72.8°F22.7°C 71.6°F22.0°C 96% Calm Calm -- 30.06 in1017.9 mb 0.00 in0.0 mm 0.00 in0.0 mm 0.00 in0.0 mm
05:45 AM 72.9°F22.7°C 72.0°F22.2°C 97% Calm Calm 1.0 mph1.6 kmh 30.06 in1017.9 mb 0.00 in0.0 mm 0.00 in0.0 mm 0.00 in0.0 mm
05:50 AM 72.9°F22.7°C 72.0°F22.2°C 97% Calm Calm 1.0 mph1.6 kmh 30.06 in1017.9 mb 0.00 in0.0 mm 0.00 in0.0 mm 0.00 in0.0 mm
05:55 AM 72.9°F22.7°C 72.0°F22.2°C 97% Calm Calm -- 30.07 in1018.3 mb 0.00 in0.0 mm 0.00 in0.0 mm 0.00 in0.0 mm
06:00 AM 73.0°F22.8°C 72.1°F22.3°C 97% Calm Calm 1.0 mph1.6 kmh 30.07 in1018.3 mb 0.00 in0.0 mm 0.00 in0.0 mm 0.00 in0.0 mm
06:05 AM 73.2°F22.9°C 72.3°F22.4°C 97% Calm Calm 1.0 mph1.6 kmh 30.07 in1018.3 mb 0.00 in0.0 mm 0.00 in0.0 mm 0.00 in0.0 mm
06:10 AM 73.2°F22.9°C 72.3°F22.4°C 97% Calm Calm 2.0 mph3.2 kmh 30.07 in1018.3 mb 0.00 in0.0 mm 0.00 in0.0 mm 0.00 in0.0 mm
06:15 AM 73.5°F23.1°C 72.9°F22.7°C 98% Calm Calm 2.0 mph3.2 kmh 30.07 in1018.3 mb 0.00 in0.0 mm 0.00 in0.0 mm 0.00 in0.0 mm
06:20 AM 73.7°F23.2°C 73.1°F22.8°C 98% Calm Calm 1.0 mph1.6 kmh 30.07 in1018.3 mb 0.00 in0.0 mm 0.00 in0.0 mm 0.00 in0.0 mm
06:25 AM 74.1°F23.4°C 73.5°F23.1°C 98% Calm Calm 1.0 mph1.6 kmh 30.08 in1018.6 mb 0.00 in0.0 mm 0.00 in0.0 mm 0.00 in0.0 mm
06:30 AM 74.3°F23.5°C 73.7°F23.2°C 98% Calm Calm 2.0 mph3.2 kmh 30.08 in1018.6 mb 0.00 in0.0 mm 0.00 in0.0 mm 0.00 in0.0 mm
06:35 AM 74.6°F23.7°C 74.0°F23.3°C 98% Calm Calm 4.0 mph6.4 kmh 30.08 in1018.6 mb 0.00 in0.0 mm 0.00 in0.0 mm 0.00 in0.0 mm
06:40 AM 75.0°F23.9°C 74.4°F23.6°C 98% 1.0 mph S1.6 kmh S 4.0 mph6.4 kmh 30.08 in1018.6 mb 0.00 in0.0 mm 0.00 in0.0 mm 0.00 in0.0 mm
06:45 AM 75.3°F24.1°C 74.7°F23.7°C 98% 2.0 mph SSW3.2 kmh SSW 4.0 mph6.4 kmh 30.08 in1018.6 mb 0.00 in0.0 mm 0.00 in0.0 mm 0.00 in0.0 mm
06:50 AM 75.7°F24.3°C 75.1°F23.9°C 98% 2.0 mph WSW3.2 kmh WSW 4.0 mph6.4 kmh 30.08 in1018.6 mb 0.00 in0.0 mm 0.00 in0.0 mm 0.00 in0.0 mm
06:55 AM 76.1°F24.5°C 75.5°F24.2°C 98% 1.0 mph ENE1.6 kmh ENE 4.0 mph6.4 kmh 30.08 in1018.6 mb 0.00 in0.0 mm 0.00 in0.0 mm 0.00 in0.0 mm
07:00 AM 76.4°F24.7°C 75.5°F24.2°C 97% 1.0 mph E1.6 kmh E 3.0 mph4.8 kmh 30.08 in1018.6 mb 0.00 in0.0 mm 0.00 in0.0 mm 0.00 in0.0 mm
07:05 AM 76.7°F24.8°C 75.8°F24.3°C 97% 1.0 mph ENE1.6 kmh ENE 4.0 mph6.4 kmh 30.08 in1018.6 mb 0.00 in0.0 mm 0.00 in0.0 mm 0.00 in0.0 mm
07:10 AM 77.1°F25.1°C 75.9°F24.4°C 96% 2.0 mph ENE3.2 kmh ENE 4.0 mph6.4 kmh 30.08 in1018.6 mb 0.00 in0.0 mm 0.00 in0.0 mm 0.00 in0.0 mm
07:15 AM 77.5°F25.3°C 76.0°F24.4°C 95% 2.0 mph ENE3.2 kmh ENE 4.0 mph6.4 kmh 30.08 in1018.6 mb 0.00 in0.0 mm 0.00 in0.0 mm 0.00 in0.0 mm
07:20 AM 78.0°F25.6°C 76.1°F24.5°C 94% 2.0 mph E3.2 kmh E 5.0 mph8.0 kmh 30.08 in1018.6 mb 0.00 in0.0 mm 0.00 in0.0 mm 0.00 in0.0 mm
07:25 AM 78.4°F25.8°C 76.2°F24.6°C 93% 2.0 mph E3.2 kmh E 5.0 mph8.0 kmh 30.08 in1018.6 mb 0.00 in0.0 mm 0.00 in0.0 mm 0.00 in0.0 mm
07:30 AM 79.0°F26.1°C 76.5°F24.7°C 92% 2.0 mph E3.2 kmh E 4.0 mph6.4 kmh 30.08 in1018.6 mb 0.00 in0.0 mm 0.00 in0.0 mm 0.00 in0.0 mm
07:35 AM 79.6°F26.4°C 76.7°F24.8°C 91% 2.0 mph E3.2 kmh E 5.0 mph8.0 kmh 30.08 in1018.6 mb 0.00 in0.0 mm 0.00 in0.0 mm 0.00 in0.0 mm
07:40 AM 80.2°F26.8°C 77.0°F25.0°C 90% 2.0 mph ENE3.2 kmh ENE 5.0 mph8.0 kmh 30.08 in1018.6 mb 0.00 in0.0 mm 0.00 in0.0 mm 0.00 in0.0 mm
07:45 AM 80.8°F27.1°C 77.3°F25.2°C 89% 2.0 mph ENE3.2 kmh ENE 5.0 mph8.0 kmh 30.08 in1018.6 mb 0.00 in0.0 mm 0.00 in0.0 mm 0.00 in0.0 mm
07:50 AM 81.4°F27.4°C 77.5°F25.3°C 88% 3.0 mph ESE4.8 kmh ESE 9.0 mph14.5 kmh 30.08 in1018.6 mb 0.00 in0.0 mm 0.00 in0.0 mm 0.00 in0.0 mm
07:55 AM 82.0°F27.8°C 77.7°F25.4°C 87% 3.0 mph ESE4.8 kmh ESE 9.0 mph14.5 kmh 30.08 in1018.6 mb 0.00 in0.0 mm 0.00 in0.0 mm 0.00 in0.0 mm
08:00 AM 82.5°F28.1°C 77.5°F25.3°C 85% 4.0 mph E6.4 kmh E 8.0 mph12.9 kmh 30.09 in1019.0 mb 0.00 in0.0 mm 0.00 in0.0 mm 0.00 in0.0 mm
08:05 AM 83.1°F28.4°C 77.8°F25.4°C 84% 4.0 mph ESE6.4 kmh ESE 9.0 mph14.5 kmh 30.09 in1019.0 mb 0.00 in0.0 mm 0.00 in0.0 mm 0.00 in0.0 mm
08:10 AM 83.8°F28.8°C 78.1°F25.6°C 83% 3.0 mph ESE4.8 kmh ESE 9.0 mph14.5 kmh 30.09 in1019.0 mb 0.00 in0.0 mm 0.00 in0.0 mm 0.00 in0.0 mm
08:15 AM 84.4°F29.1°C 77.9°F25.5°C 81% 3.0 mph SE4.8 kmh SE 9.0 mph14.5 kmh 30.09 in1019.0 mb 0.00 in0.0 mm 0.00 in0.0 mm 0.00 in0.0 mm
08:20 AM 84.9°F29.4°C 78.4°F25.8°C 81% 4.0 mph SE6.4 kmh SE 9.0 mph14.5 kmh 30.09 in1019.0 mb 0.00 in0.0 mm 0.00 in0.0 mm 0.00 in0.0 mm
08:25 AM 85.5°F29.7°C 78.6°F25.9°C 80% 3.0 mph E4.8 kmh E 10.0 mph16.1 kmh 30.09 in1019.0 mb 0.00 in0.0 mm 0.00 in0.0 mm 0.00 in0.0 mm
08:30 AM 86.2°F30.1°C 78.5°F25.8°C 78% 3.0 mph E4.8 kmh E 10.0 mph16.1 kmh 30.09 in1019.0 mb 0.00 in0.0 mm 0.00 in0.0 mm 0.00 in0.0 mm
08:35 AM 86.8°F30.4°C 78.3°F25.7°C 76% 3.0 mph ESE4.8 kmh ESE 7.0 mph11.3 kmh 30.09 in1019.0 mb 0.00 in0.0 mm 0.00 in0.0 mm 0.00 in0.0 mm
08:40 AM 87.3°F30.7°C 78.0°F25.6°C 74% 3.0 mph ESE4.8 kmh ESE 10.0 mph16.1 kmh 30.09 in1019.0 mb 0.00 in0.0 mm 0.00 in0.0 mm 0.00 in0.0 mm
08:45 AM 87.5°F30.8°C 78.6°F25.9°C 75% 4.0 mph ESE6.4 kmh ESE 10.0 mph16.1 kmh 30.09 in1019.0 mb 0.00 in0.0 mm 0.00 in0.0 mm 0.00 in0.0 mm
08:50 AM 87.7°F30.9°C 78.8°F26.0°C 75% 5.0 mph ESE8.0 kmh ESE 10.0 mph16.1 kmh 30.09 in1019.0 mb 0.00 in0.0 mm 0.00 in0.0 mm 0.00 in0.0 mm
08:55 AM 88.3°F31.3°C 78.5°F25.8°C 73% 4.0 mph ESE6.4 kmh ESE 10.0 mph16.1 kmh 30.09 in1019.0 mb 0.00 in0.0 mm 0.00 in0.0 mm 0.00 in0.0 mm
09:00 AM 88.3°F31.3°C 78.5°F25.8°C 73% 5.0 mph ESE8.0 kmh ESE 13.0 mph20.9 kmh 30.10 in1019.3 mb 0.00 in0.0 mm 0.00 in0.0 mm 0.00 in0.0 mm
09:05 AM 88.6°F31.4°C 78.4°F25.8°C 72% 5.0 mph ESE8.0 kmh ESE 13.0 mph20.9 kmh 30.10 in1019.3 mb 0.00 in0.0 mm 0.00 in0.0 mm 0.00 in0.0 mm
09:10 AM 89.0°F31.7°C 77.9°F25.5°C 70% 4.0 mph ESE6.4 kmh ESE 10.0 mph16.1 kmh 30.09 in1019.0 mb 0.00 in0.0 mm 0.00 in0.0 mm 0.00 in0.0 mm
09:15 AM 89.3°F31.8°C 77.8°F25.4°C 69% 4.0 mph E6.4 kmh E 8.0 mph12.9 kmh 30.09 in1019.0 mb 0.00 in0.0 mm 0.00 in0.0 mm 0.00 in0.0 mm
09:20 AM 89.6°F32.0°C 78.1°F25.6°C 69% 4.0 mph E6.4 kmh E 8.0 mph12.9 kmh 30.10 in1019.3 mb 0.00 in0.0 mm 0.00 in0.0 mm 0.00 in0.0 mm
09:25 AM 89.7°F32.1°C 77.7°F25.4°C 68% 4.0 mph ESE6.4 kmh ESE 10.0 mph16.1 kmh 30.10 in1019.3 mb 0.00 in0.0 mm 0.00 in0.0 mm 0.00 in0.0 mm
09:30 AM 89.9°F32.2°C 78.4°F25.8°C 69% 4.0 mph SE6.4 kmh SE 10.0 mph16.1 kmh 30.09 in1019.0 mb 0.00 in0.0 mm 0.00 in0.0 mm 0.00 in0.0 mm
09:35 AM 90.1°F32.3°C 78.6°F25.9°C 69% 4.0 mph SE6.4 kmh SE 11.0 mph17.7 kmh 30.09 in1019.0 mb 0.00 in0.0 mm 0.00 in0.0 mm 0.00 in0.0 mm
09:40 AM 90.0°F32.2°C 78.0°F25.6°C 68% 4.0 mph ESE6.4 kmh ESE 11.0 mph17.7 kmh 30.10 in1019.3 mb 0.00 in0.0 mm 0.00 in0.0 mm 0.00 in0.0 mm
09:45 AM 90.3°F32.4°C 78.7°F25.9°C 69% 3.0 mph ESE4.8 kmh ESE 8.0 mph12.9 kmh 30.10 in1019.3 mb 0.00 in0.0 mm 0.00 in0.0 mm 0.00 in0.0 mm
09:50 AM 90.9°F32.7°C 78.0°F25.6°C 66% 4.0 mph E6.4 kmh E 8.0 mph12.9 kmh 30.09 in1019.0 mb 0.00 in0.0 mm 0.00 in0.0 mm 0.00 in0.0 mm
09:55 AM 91.0°F32.8°C 77.6°F25.3°C 65% 4.0 mph E6.4 kmh E 10.0 mph16.1 kmh 30.09 in1019.0 mb 0.00 in0.0 mm 0.00 in0.0 mm 0.00 in0.0 mm
10:00 AM 91.3°F32.9°C 77.9°F25.5°C 65% 4.0 mph ESE6.4 kmh ESE 10.0 mph16.1 kmh 30.09 in1019.0 mb 0.00 in0.0 mm 0.00 in0.0 mm 0.00 in0.0 mm
10:05 AM 91.8°F33.2°C 77.4°F25.2°C 63% 3.0 mph ESE4.8 kmh ESE 7.0 mph11.3 kmh 30.09 in1019.0 mb 0.00 in0.0 mm 0.00 in0.0 mm 0.00 in0.0 mm
10:10 AM 92.4°F33.6°C 76.5°F24.7°C 60% 3.0 mph ESE4.8 kmh ESE 9.0 mph14.5 kmh 30.09 in1019.0 mb 0.00 in0.0 mm 0.00 in0.0 mm 0.00 in0.0 mm
10:15 AM 92.8°F33.8°C 77.9°F25.5°C 62% 3.0 mph ESE4.8 kmh ESE 9.0 mph14.5 kmh 30.09 in1019.0 mb 0.00 in0.0 mm 0.00 in0.0 mm 0.00 in0.0 mm
10:20 AM 93.2°F34.0°C 78.2°F25.7°C 62% 3.0 mph E4.8 kmh E 6.0 mph9.7 kmh 30.09 in1019.0 mb 0.00 in0.0 mm 0.00 in0.0 mm 0.00 in0.0 mm
10:25 AM 93.3°F34.1°C 76.8°F24.9°C 59% 3.0 mph E4.8 kmh E 10.0 mph16.1 kmh 30.09 in1019.0 mb 0.00 in0.0 mm 0.00 in0.0 mm 0.00 in0.0 mm
10:30 AM 93.1°F33.9°C 76.1°F24.5°C 58% 4.0 mph SE6.4 kmh SE 10.0 mph16.1 kmh 30.09 in1019.0 mb 0.00 in0.0 mm 0.00 in0.0 mm 0.00 in0.0 mm
10:35 AM 93.4°F34.1°C 75.9°F24.4°C 57% 5.0 mph E8.0 kmh E 11.0 mph17.7 kmh 30.09 in1019.0 mb 0.00 in0.0 mm 0.00 in0.0 mm 0.00 in0.0 mm
10:40 AM 93.6°F34.2°C 77.1°F25.1°C 59% 4.0 mph ESE6.4 kmh ESE 11.0 mph17.7 kmh 30.09 in1019.0 mb 0.00 in0.0 mm 0.00 in0.0 mm 0.00 in0.0 mm
10:45 AM 93.8°F34.3°C 76.8°F24.9°C 58% 4.0 mph ESE6.4 kmh ESE 11.0 mph17.7 kmh 30.09 in1019.0 mb 0.00 in0.0 mm 0.00 in0.0 mm 0.00 in0.0 mm
10:50 AM 93.9°F34.4°C 76.4°F24.7°C 57% 3.0 mph E4.8 kmh E 10.0 mph16.1 kmh 30.09 in1019.0 mb 0.00 in0.0 mm 0.00 in0.0 mm 0.00 in0.0 mm
10:55 AM 94.2°F34.6°C 77.7°F25.4°C 59% 3.0 mph E4.8 kmh E 9.0 mph14.5 kmh 30.09 in1019.0 mb 0.00 in0.0 mm 0.00 in0.0 mm 0.00 in0.0 mm
11:00 AM 94.8°F34.9°C 77.7°F25.4°C 58% 3.0 mph E4.8 kmh E 11.0 mph17.7 kmh 30.09 in1019.0 mb 0.00 in0.0 mm 0.00 in0.0 mm 0.00 in0.0 mm
11:05 AM 95.1°F35.1°C 77.5°F25.3°C 57% 4.0 mph ESE6.4 kmh ESE 11.0 mph17.7 kmh 30.09 in1019.0 mb 0.00 in0.0 mm 0.00 in0.0 mm 0.00 in0.0 mm
11:10 AM 95.2°F35.1°C 75.9°F24.4°C 54% 5.0 mph ESE8.0 kmh ESE 13.0 mph20.9 kmh 30.08 in1018.6 mb 0.00 in0.0 mm 0.00 in0.0 mm 0.00 in0.0 mm
11:15 AM 95.3°F35.2°C 76.6°F24.8°C 55% 5.0 mph E8.0 kmh E 13.0 mph20.9 kmh 30.09 in1019.0 mb 0.00 in0.0 mm 0.00 in0.0 mm 0.00 in0.0 mm
11:20 AM 95.4°F35.2°C 77.2°F25.1°C 56% 4.0 mph E6.4 kmh E 10.0 mph16.1 kmh 30.08 in1018.6 mb 0.00 in0.0 mm 0.00 in0.0 mm 0.00 in0.0 mm
11:25 AM 95.8°F35.4°C 77.0°F25.0°C 55% 4.0 mph E6.4 kmh E 10.0 mph16.1 kmh 30.08 in1018.6 mb 0.00 in0.0 mm 0.00 in0.0 mm 0.00 in0.0 mm
11:30 AM 96.0°F35.6°C 76.1°F24.5°C 53% 5.0 mph ESE8.0 kmh ESE 12.0 mph19.3 kmh 30.08 in1018.6 mb 0.00 in0.0 mm 0.00 in0.0 mm 0.00 in0.0 mm
11:35 AM 96.0°F35.6°C 75.5°F24.2°C 52% 5.0 mph E8.0 kmh E 12.0 mph19.3 kmh 30.08 in1018.6 mb 0.00 in0.0 mm 0.00 in0.0 mm 0.00 in0.0 mm
11:40 AM 96.2°F35.7°C 75.7°F24.3°C 52% 4.0 mph ENE6.4 kmh ENE 11.0 mph17.7 kmh 30.08 in1018.6 mb 0.00 in0.0 mm 0.00 in0.0 mm 0.00 in0.0 mm
11:45 AM 96.5°F35.8°C 75.4°F24.1°C 51% 3.0 mph E4.8 kmh E 12.0 mph19.3 kmh 30.08 in1018.6 mb 0.00 in0.0 mm 0.00 in0.0 mm 0.00 in0.0 mm
11:50 AM 96.7°F35.9°C 74.4°F23.6°C 49% 3.0 mph E4.8 kmh E 12.0 mph19.3 kmh 30.08 in1018.6 mb 0.00 in0.0 mm 0.00 in0.0 mm 0.00 in0.0 mm
11:55 AM 96.6°F35.9°C 73.7°F23.2°C 48% 3.0 mph ESE4.8 kmh ESE 8.0 mph12.9 kmh 30.07 in1018.3 mb 0.00 in0.0 mm 0.00 in0.0 mm 0.00 in0.0 mm
12:00 PM 96.6°F35.9°C 73.1°F22.8°C 47% 4.0 mph ESE6.4 kmh ESE 11.0 mph17.7 kmh 30.08 in1018.6 mb 0.00 in0.0 mm 0.00 in0.0 mm 0.00 in0.0 mm
12:05 PM 96.6°F35.9°C 73.7°F23.2°C 48% 4.0 mph E6.4 kmh E 11.0 mph17.7 kmh 30.07 in1018.3 mb 0.00 in0.0 mm 0.00 in0.0 mm 0.00 in0.0 mm
12:10 PM 96.7°F35.9°C 75.6°F24.2°C 51% 3.0 mph ESE4.8 kmh ESE 9.0 mph14.5 kmh 30.07 in1018.3 mb 0.00 in0.0 mm 0.00 in0.0 mm 0.00 in0.0 mm
12:15 PM 96.8°F36.0°C 73.9°F23.3°C 48% 4.0 mph E6.4 kmh E 10.0 mph16.1 kmh 30.07 in1018.3 mb 0.00 in0.0 mm 0.00 in0.0 mm 0.00 in0.0 mm
12:20 PM 96.7°F35.9°C 72.5°F22.5°C 46% 4.0 mph NE6.4 kmh NE 10.0 mph16.1 kmh 30.06 in1017.9 mb 0.00 in0.0 mm 0.00 in0.0 mm 0.00 in0.0 mm
12:25 PM 96.9°F36.1°C 73.3°F22.9°C 47% 4.0 mph ENE6.4 kmh ENE 12.0 mph19.3 kmh 30.06 in1017.9 mb 0.00 in0.0 mm 0.00 in0.0 mm 0.00 in0.0 mm
12:30 PM 97.1°F36.2°C 72.2°F22.3°C 45% 5.0 mph NE8.0 kmh NE 12.0 mph19.3 kmh 30.06 in1017.9 mb 0.00 in0.0 mm 0.00 in0.0 mm 0.00 in0.0 mm
12:35 PM 97.1°F36.2°C 72.2°F22.3°C 45% 4.0 mph NE6.4 kmh NE 9.0 mph14.5 kmh 30.06 in1017.9 mb 0.00 in0.0 mm 0.00 in0.0 mm 0.00 in0.0 mm
12:40 PM 97.2°F36.2°C 73.6°F23.1°C 47% 3.0 mph NE4.8 kmh NE 9.0 mph14.5 kmh 30.06 in1017.9 mb 0.00 in0.0 mm 0.00 in0.0 mm 0.00 in0.0 mm
12:45 PM 97.5°F36.4°C 74.5°F23.6°C 48% 3.0 mph E4.8 kmh E 9.0 mph14.5 kmh 30.05 in1017.6 mb 0.00 in0.0 mm 0.00 in0.0 mm 0.00 in0.0 mm
12:50 PM 97.7°F36.5°C 74.1°F23.4°C 47% 3.0 mph E4.8 kmh E 9.0 mph14.5 kmh 30.05 in1017.6 mb 0.00 in0.0 mm 0.00 in0.0 mm 0.00 in0.0 mm
12:55 PM 98.0°F36.7°C 73.0°F22.8°C 45% 4.0 mph E6.4 kmh E 9.0 mph14.5 kmh 30.05 in1017.6 mb 0.00 in0.0 mm 0.00 in0.0 mm 0.00 in0.0 mm
01:00 PM 98.3°F36.8°C 73.3°F22.9°C 45% 4.0 mph ENE6.4 kmh ENE 10.0 mph16.1 kmh 30.04 in1017.3 mb 0.00 in0.0 mm 0.00 in0.0 mm 0.00 in0.0 mm
01:05 PM 98.5°F36.9°C 73.5°F23.1°C 45% 4.0 mph ENE6.4 kmh ENE 10.0 mph16.1 kmh 30.04 in1017.3 mb 0.00 in0.0 mm 0.00 in0.0 mm 0.00 in0.0 mm
01:10 PM 98.5°F36.9°C 73.5°F23.1°C 45% 4.0 mph NE6.4 kmh NE 10.0 mph16.1 kmh 30.04 in1017.3 mb 0.00 in0.0 mm 0.00 in0.0 mm 0.00 in0.0 mm
01:15 PM 98.8°F37.1°C 74.4°F23.6°C 46% 4.0 mph E6.4 kmh E 10.0 mph16.1 kmh 30.04 in1017.3 mb 0.00 in0.0 mm 0.00 in0.0 mm 0.00 in0.0 mm
01:20 PM 98.7°F37.1°C 73.7°F23.2°C 45% 3.0 mph E4.8 kmh E 10.0 mph16.1 kmh 30.04 in1017.3 mb 0.00 in0.0 mm 0.00 in0.0 mm 0.00 in0.0 mm
01:25 PM 98.6°F37.0°C 73.6°F23.1°C 45% 3.0 mph NE4.8 kmh NE 9.0 mph14.5 kmh 30.04 in1017.3 mb 0.00 in0.0 mm 0.00 in0.0 mm 0.00 in0.0 mm
01:30 PM 99.1°F37.3°C 73.4°F23.0°C 44% 4.0 mph NE6.4 kmh NE 9.0 mph14.5 kmh 30.04 in1017.3 mb 0.00 in0.0 mm 0.00 in0.0 mm 0.00 in0.0 mm
01:35 PM 99.3°F37.4°C 72.9°F22.7°C 43% 4.0 mph E6.4 kmh E 11.0 mph17.7 kmh 30.03 in1016.9 mb 0.00 in0.0 mm 0.00 in0.0 mm 0.00 in0.0 mm
01:40 PM 99.3°F37.4°C 74.2°F23.4°C 45% 5.0 mph ESE8.0 kmh ESE 11.0 mph17.7 kmh 30.03 in1016.9 mb 0.00 in0.0 mm 0.00 in0.0 mm 0.00 in0.0 mm
01:45 PM 99.5°F37.5°C 73.7°F23.2°C 44% 5.0 mph ENE8.0 kmh ENE 10.0 mph16.1 kmh 30.02 in1016.6 mb 0.00 in0.0 mm 0.00 in0.0 mm 0.00 in0.0 mm
01:50 PM 99.8°F37.7°C 74.0°F23.3°C 44% 4.0 mph ENE6.4 kmh ENE 9.0 mph14.5 kmh 30.02 in1016.6 mb 0.00 in0.0 mm 0.00 in0.0 mm 0.00 in0.0 mm
01:55 PM 100.1°F37.8°C 74.3°F23.5°C 44% 3.0 mph E4.8 kmh E 9.0 mph14.5 kmh 30.02 in1016.6 mb 0.00 in0.0 mm 0.00 in0.0 mm 0.00 in0.0 mm
02:00 PM 100.8°F38.2°C 74.2°F23.4°C 43% 3.0 mph ESE4.8 kmh ESE 9.0 mph14.5 kmh 30.01 in1016.3 mb 0.00 in0.0 mm 0.00 in0.0 mm 0.00 in0.0 mm
02:05 PM 101.1°F38.4°C 72.3°F22.4°C 40% 3.0 mph SE4.8 kmh SE 9.0 mph14.5 kmh 30.02 in1016.6 mb 0.00 in0.0 mm 0.00 in0.0 mm 0.00 in0.0 mm
02:10 PM 101.2°F38.4°C 74.6°F23.7°C 43% 5.0 mph SE8.0 kmh SE 22.0 mph35.4 kmh 30.02 in1016.6 mb 0.00 in0.0 mm 0.00 in0.0 mm 0.00 in0.0 mm
02:15 PM 96.0°F35.6°C 75.0°F23.9°C 51% 10.0 mph SE16.1 kmh SE 29.0 mph46.7 kmh 30.04 in1017.3 mb 0.00 in0.0 mm 0.00 in0.0 mm 0.00 in0.0 mm
02:20 PM 91.6°F33.1°C 70.9°F21.6°C 51% 15.0 mph SE24.1 kmh SE 29.0 mph46.7 kmh 30.04 in1017.3 mb 0.00 in0.0 mm 0.00 in0.0 mm 0.00 in0.0 mm
02:25 PM 88.0°F31.1°C 69.8°F21.0°C 55% 13.0 mph SE20.9 kmh SE 25.0 mph40.2 kmh 30.05 in1017.6 mb 0.00 in0.0 mm 0.00 in0.0 mm 0.00 in0.0 mm
02:30 PM 85.7°F29.8°C 70.2°F21.2°C 60% 11.0 mph ESE17.7 kmh ESE 23.0 mph37.0 kmh 30.07 in1018.3 mb 0.00 in0.0 mm 0.00 in0.0 mm 0.00 in0.0 mm
02:35 PM 83.9°F28.8°C 71.3°F21.8°C 66% 10.0 mph E16.1 kmh E 20.0 mph32.2 kmh 30.06 in1017.9 mb 0.00 in0.0 mm 0.00 in0.0 mm 0.00 in0.0 mm
02:40 PM 82.4°F28.0°C 70.8°F21.6°C 68% 9.0 mph ENE14.5 kmh ENE 20.0 mph32.2 kmh 30.07 in1018.3 mb 0.00 in0.0 mm 0.00 in0.0 mm 0.00 in0.0 mm
02:45 PM 80.8°F27.1°C 70.5°F21.4°C 71% 8.0 mph NE12.9 kmh NE 17.0 mph27.4 kmh 30.07 in1018.3 mb 0.00 in0.0 mm 0.00 in0.0 mm 0.00 in0.0 mm
02:50 PM 80.0°F26.7°C 70.6°F21.4°C 73% 6.0 mph NE9.7 kmh NE 13.0 mph20.9 kmh 30.05 in1017.6 mb 0.00 in0.0 mm 0.00 in0.0 mm 0.00 in0.0 mm
02:55 PM 79.4°F26.3°C 70.8°F21.6°C 75% 5.0 mph ENE8.0 kmh ENE 13.0 mph20.9 kmh 30.05 in1017.6 mb 0.00 in0.0 mm 0.00 in0.0 mm 0.00 in0.0 mm
03:00 PM 78.6°F25.9°C 70.8°F21.6°C 77% 6.0 mph NE9.7 kmh NE 14.0 mph22.5 kmh 30.04 in1017.3 mb 0.00 in0.0 mm 0.00 in0.0 mm 0.00 in0.0 mm
03:05 PM 77.9°F25.5°C 69.7°F20.9°C 76% 7.0 mph NE11.3 kmh NE 14.0 mph22.5 kmh 30.04 in1017.3 mb 0.00 in0.0 mm 0.00 in0.0 mm 0.00 in0.0 mm
03:10 PM 77.3°F25.2°C 68.8°F20.4°C 75% 6.0 mph NNE9.7 kmh NNE 12.0 mph19.3 kmh 30.03 in1016.9 mb 0.00 in0.0 mm 0.00 in0.0 mm 0.00 in0.0 mm
03:15 PM 77.4°F25.2°C 68.9°F20.5°C 75% 4.0 mph NE6.4 kmh NE 10.0 mph16.1 kmh 30.03 in1016.9 mb 0.00 in0.0 mm 0.00 in0.0 mm 0.00 in0.0 mm
03:20 PM 78.0°F25.6°C 69.8°F21.0°C 76% 3.0 mph NE4.8 kmh NE 8.0 mph12.9 kmh 30.02 in1016.6 mb 0.00 in0.0 mm 0.00 in0.0 mm 0.00 in0.0 mm
03:25 PM 78.7°F25.9°C 70.9°F21.6°C 77% 3.0 mph NE4.8 kmh NE 8.0 mph12.9 kmh 30.02 in1016.6 mb 0.00 in0.0 mm 0.00 in0.0 mm 0.00 in0.0 mm
03:30 PM 79.5°F26.4°C 71.7°F22.1°C 77% 3.0 mph NE4.8 kmh NE 8.0 mph12.9 kmh 30.02 in1016.6 mb 0.00 in0.0 mm 0.00 in0.0 mm 0.00 in0.0 mm
03:35 PM 80.7°F27.1°C 71.2°F21.8°C 73% 3.0 mph NE4.8 kmh NE 8.0 mph12.9 kmh 30.02 in1016.6 mb 0.00 in0.0 mm 0.00 in0.0 mm 0.00 in0.0 mm
03:40 PM 82.0°F27.8°C 71.7°F22.1°C 71% 3.0 mph ENE4.8 kmh ENE 8.0 mph12.9 kmh 30.02 in1016.6 mb 0.00 in0.0 mm 0.00 in0.0 mm 0.00 in0.0 mm
03:45 PM 82.7°F28.2°C 72.3°F22.4°C 71% 4.0 mph E6.4 kmh E 9.0 mph14.5 kmh 30.03 in1016.9 mb 0.00 in0.0 mm 0.00 in0.0 mm 0.00 in0.0 mm
03:50 PM 82.9°F28.3°C 72.5°F22.5°C 71% 5.0 mph SE8.0 kmh SE 10.0 mph16.1 kmh 30.03 in1016.9 mb 0.00 in0.0 mm 0.00 in0.0 mm 0.00 in0.0 mm
03:55 PM 82.9°F28.3°C 72.9°F22.7°C 72% 4.0 mph ESE6.4 kmh ESE 10.0 mph16.1 kmh 30.03 in1016.9 mb 0.00 in0.0 mm 0.00 in0.0 mm 0.00 in0.0 mm
04:00 PM 82.6°F28.1°C 73.5°F23.1°C 74% 4.0 mph E6.4 kmh E 9.0 mph14.5 kmh 30.03 in1016.9 mb 0.00 in0.0 mm 0.00 in0.0 mm 0.00 in0.0 mm
04:05 PM 82.6°F28.1°C 73.9°F23.3°C 75% 4.0 mph E6.4 kmh E 10.0 mph16.1 kmh 30.03 in1016.9 mb 0.00 in0.0 mm 0.00 in0.0 mm 0.00 in0.0 mm
04:10 PM 82.8°F28.2°C 74.5°F23.6°C 76% 3.0 mph E4.8 kmh E 10.0 mph16.1 kmh 30.03 in1016.9 mb 0.00 in0.0 mm 0.00 in0.0 mm 0.00 in0.0 mm
04:15 PM 82.8°F28.2°C 74.8°F23.8°C 77% 3.0 mph E4.8 kmh E 9.0 mph14.5 kmh 30.03 in1016.9 mb 0.00 in0.0 mm 0.00 in0.0 mm 0.00 in0.0 mm
04:20 PM 82.7°F28.2°C 75.1°F23.9°C 78% 4.0 mph E6.4 kmh E 12.0 mph19.3 kmh 30.03 in1016.9 mb 0.00 in0.0 mm 0.00 in0.0 mm 0.00 in0.0 mm
04:25 PM 82.5°F28.1°C 75.3°F24.1°C 79% 4.0 mph E6.4 kmh E 12.0 mph19.3 kmh 30.03 in1016.9 mb 0.00 in0.0 mm 0.00 in0.0 mm 0.00 in0.0 mm
04:30 PM 82.5°F28.1°C 75.7°F24.3°C 80% 4.0 mph ESE6.4 kmh ESE 9.0 mph14.5 kmh 30.03 in1016.9 mb 0.00 in0.0 mm 0.00 in0.0 mm 0.00 in0.0 mm
04:35 PM 82.4°F28.0°C 75.6°F24.2°C 80% 4.0 mph ESE6.4 kmh ESE 9.0 mph14.5 kmh 30.03 in1016.9 mb 0.00 in0.0 mm 0.00 in0.0 mm 0.00 in0.0 mm
04:40 PM 82.3°F27.9°C 75.5°F24.2°C 80% 4.0 mph ESE6.4 kmh ESE 10.0 mph16.1 kmh 30.03 in1016.9 mb 0.00 in0.0 mm 0.00 in0.0 mm 0.00 in0.0 mm
04:45 PM 82.3°F27.9°C 75.9°F24.4°C 81% 4.0 mph ESE6.4 kmh ESE 10.0 mph16.1 kmh 30.03 in1016.9 mb 0.00 in0.0 mm 0.00 in0.0 mm 0.00 in0.0 mm
04:50 PM 82.1°F27.8°C 75.7°F24.3°C 81% 3.0 mph ESE4.8 kmh ESE 10.0 mph16.1 kmh 30.03 in1016.9 mb 0.00 in0.0 mm 0.00 in0.0 mm 0.00 in0.0 mm
04:55 PM 81.9°F27.7°C 75.5°F24.2°C 81% 4.0 mph ESE6.4 kmh ESE 9.0 mph14.5 kmh 30.03 in1016.9 mb 0.00 in0.0 mm 0.00 in0.0 mm 0.00 in0.0 mm
05:00 PM 81.8°F27.7°C 75.4°F24.1°C 81% 4.0 mph ESE6.4 kmh ESE 9.0 mph14.5 kmh 30.03 in1016.9 mb 0.00 in0.0 mm 0.00 in0.0 mm 0.00 in0.0 mm
05:05 PM 81.7°F27.6°C 75.7°F24.3°C 82% 3.0 mph ESE4.8 kmh ESE 8.0 mph12.9 kmh 30.03 in1016.9 mb 0.00 in0.0 mm 0.00 in0.0 mm 0.00 in0.0 mm
05:10 PM 81.6°F27.6°C 75.6°F24.2°C 82% 3.0 mph ESE4.8 kmh ESE 8.0 mph12.9 kmh 30.04 in1017.3 mb 0.00 in0.0 mm 0.00 in0.0 mm 0.00 in0.0 mm
05:15 PM 81.5°F27.5°C 75.5°F24.2°C 82% 3.0 mph ESE4.8 kmh ESE 8.0 mph12.9 kmh 30.04 in1017.3 mb 0.00 in0.0 mm 0.00 in0.0 mm 0.00 in0.0 mm
05:20 PM 81.4°F27.4°C 75.7°F24.3°C 83% 3.0 mph ESE4.8 kmh ESE 8.0 mph12.9 kmh 30.04 in1017.3 mb 0.00 in0.0 mm 0.00 in0.0 mm 0.00 in0.0 mm
05:25 PM 81.4°F27.4°C 75.7°F24.3°C 83% 2.0 mph SE3.2 kmh SE 7.0 mph11.3 kmh 30.05 in1017.6 mb 0.00 in0.0 mm 0.00 in0.0 mm 0.00 in0.0 mm
05:30 PM 81.4°F27.4°C 75.7°F24.3°C 83% 2.0 mph SE3.2 kmh SE 8.0 mph12.9 kmh 30.05 in1017.6 mb 0.00 in0.0 mm 0.00 in0.0 mm 0.00 in0.0 mm
05:35 PM 81.4°F27.4°C 75.7°F24.3°C 83% 3.0 mph SE4.8 kmh SE 8.0 mph12.9 kmh 30.06 in1017.9 mb 0.00 in0.0 mm 0.00 in0.0 mm 0.00 in0.0 mm
05:40 PM 81.5°F27.5°C 75.8°F24.3°C 83% 2.0 mph ESE3.2 kmh ESE 7.0 mph11.3 kmh 30.06 in1017.9 mb 0.00 in0.0 mm 0.00 in0.0 mm 0.00 in0.0 mm
05:45 PM 81.6°F27.6°C 75.9°F24.4°C 83% 2.0 mph ESE3.2 kmh ESE 7.0 mph11.3 kmh 30.06 in1017.9 mb 0.00 in0.0 mm 0.00 in0.0 mm 0.00 in0.0 mm
05:50 PM 81.6°F27.6°C 75.6°F24.2°C 82% 3.0 mph ESE4.8 kmh ESE 8.0 mph12.9 kmh 30.06 in1017.9 mb 0.00 in0.0 mm 0.00 in0.0 mm 0.00 in0.0 mm
05:55 PM 81.6°F27.6°C 75.6°F24.2°C 82% 3.0 mph SE4.8 kmh SE 9.0 mph14.5 kmh 30.06 in1017.9 mb 0.00 in0.0 mm 0.00 in0.0 mm 0.00 in0.0 mm
06:00 PM 81.6°F27.6°C 75.6°F24.2°C 82% 3.0 mph SE4.8 kmh SE 9.0 mph14.5 kmh 30.06 in1017.9 mb 0.00 in0.0 mm 0.00 in0.0 mm 0.00 in0.0 mm
06:05 PM 81.7°F27.6°C 75.7°F24.3°C 82% 3.0 mph SE4.8 kmh SE 7.0 mph11.3 kmh 30.06 in1017.9 mb 0.00 in0.0 mm 0.00 in0.0 mm 0.00 in0.0 mm
06:10 PM 81.7°F27.6°C 75.7°F24.3°C 82% 2.0 mph SE3.2 kmh SE 5.0 mph8.0 kmh 30.06 in1017.9 mb 0.00 in0.0 mm 0.00 in0.0 mm 0.00 in0.0 mm
06:15 PM 81.6°F27.6°C 75.6°F24.2°C 82% 1.0 mph SE1.6 kmh SE 5.0 mph8.0 kmh 30.06 in1017.9 mb 0.00 in0.0 mm 0.00 in0.0 mm 0.00 in0.0 mm
06:20 PM 81.6°F27.6°C 75.6°F24.2°C 82% 1.0 mph SE1.6 kmh SE 4.0 mph6.4 kmh 30.06 in1017.9 mb 0.00 in0.0 mm 0.00 in0.0 mm 0.00 in0.0 mm
06:25 PM 81.6°F27.6°C 75.2°F24.0°C 81% 2.0 mph ESE3.2 kmh ESE 7.0 mph11.3 kmh 30.06 in1017.9 mb 0.00 in0.0 mm 0.00 in0.0 mm 0.00 in0.0 mm
06:30 PM 81.6°F27.6°C 75.2°F24.0°C 81% 2.0 mph E3.2 kmh E 7.0 mph11.3 kmh 30.06 in1017.9 mb 0.00 in0.0 mm 0.00 in0.0 mm 0.00 in0.0 mm
06:35 PM 81.6°F27.6°C 74.8°F23.8°C 80% 2.0 mph E3.2 kmh E 6.0 mph9.7 kmh 30.06 in1017.9 mb 0.00 in0.0 mm 0.00 in0.0 mm 0.00 in0.0 mm
06:40 PM 81.6°F27.6°C 75.2°F24.0°C 81% 2.0 mph E3.2 kmh E 4.0 mph6.4 kmh 30.06 in1017.9 mb 0.00 in0.0 mm 0.00 in0.0 mm 0.00 in0.0 mm
06:45 PM 81.6°F27.6°C 75.2°F24.0°C 81% 2.0 mph E3.2 kmh E 4.0 mph6.4 kmh 30.06 in1017.9 mb 0.00 in0.0 mm 0.00 in0.0 mm 0.00 in0.0 mm
06:50 PM 81.5°F27.5°C 75.5°F24.2°C 82% 1.0 mph E1.6 kmh E 4.0 mph6.4 kmh 30.06 in1017.9 mb 0.00 in0.0 mm 0.00 in0.0 mm 0.00 in0.0 mm
06:55 PM 81.4°F27.4°C 75.4°F24.1°C 82% 2.0 mph E3.2 kmh E 4.0 mph6.4 kmh 30.06 in1017.9 mb 0.00 in0.0 mm 0.00 in0.0 mm 0.00 in0.0 mm
07:00 PM 81.2°F27.3°C 75.2°F24.0°C 82% 2.0 mph E3.2 kmh E 4.0 mph6.4 kmh 30.06 in1017.9 mb 0.00 in0.0 mm 0.00 in0.0 mm 0.00 in0.0 mm
07:05 PM 81.0°F27.2°C 75.3°F24.1°C 83% 2.0 mph E3.2 kmh E 4.0 mph6.4 kmh 30.07 in1018.3 mb 0.00 in0.0 mm 0.00 in0.0 mm 0.00 in0.0 mm
07:10 PM 80.9°F27.2°C 74.9°F23.8°C 82% 2.0 mph E3.2 kmh E 4.0 mph6.4 kmh 30.07 in1018.3 mb 0.00 in0.0 mm 0.00 in0.0 mm 0.00 in0.0 mm
07:15 PM 80.7°F27.1°C 74.7°F23.7°C 82% 2.0 mph ENE3.2 kmh ENE 4.0 mph6.4 kmh 30.07 in1018.3 mb 0.00 in0.0 mm 0.00 in0.0 mm 0.00 in0.0 mm
07:20 PM 80.5°F26.9°C 74.5°F23.6°C 82% 2.0 mph NE3.2 kmh NE 4.0 mph6.4 kmh 30.07 in1018.3 mb 0.00 in0.0 mm 0.00 in0.0 mm 0.00 in0.0 mm
07:25 PM 80.5°F26.9°C 74.5°F23.6°C 82% 2.0 mph NE3.2 kmh NE 6.0 mph9.7 kmh 30.07 in1018.3 mb 0.00 in0.0 mm 0.00 in0.0 mm 0.00 in0.0 mm
07:30 PM 80.5°F26.9°C 74.1°F23.4°C 81% 3.0 mph ENE4.8 kmh ENE 7.0 mph11.3 kmh 30.07 in1018.3 mb 0.00 in0.0 mm 0.00 in0.0 mm 0.00 in0.0 mm
07:35 PM 79.5°F26.4°C 71.3°F21.8°C 76% 7.0 mph ESE11.3 kmh ESE 30.0 mph48.3 kmh 30.11 in1019.6 mb 0.00 in0.0 mm 0.00 in0.0 mm 0.00 in0.0 mm
07:40 PM 78.1°F25.6°C 71.1°F21.7°C 79% 12.0 mph SE19.3 kmh SE 30.0 mph48.3 kmh 30.11 in1019.6 mb 0.00 in0.0 mm 0.00 in0.0 mm 0.00 in0.0 mm
07:45 PM 76.0°F24.4°C 71.2°F21.8°C 85% 11.0 mph SE17.7 kmh SE 18.0 mph29.0 kmh 30.12 in1020.0 mb 0.06 in1.5 mm 0.72 in18.3 mm 0.06 in1.5 mm
07:50 PM 74.4°F23.6°C 70.6°F21.4°C 88% 9.0 mph SSE14.5 kmh SSE 15.0 mph24.1 kmh 30.12 in1020.0 mb 0.08 in2.0 mm 0.24 in6.1 mm 0.08 in2.0 mm
07:55 PM 73.5°F23.1°C 70.4°F21.3°C 90% 7.0 mph SSE11.3 kmh SSE 14.0 mph22.5 kmh 30.12 in1020.0 mb 0.09 in2.3 mm 0.12 in3.0 mm 0.09 in2.3 mm
08:00 PM 72.8°F22.7°C 70.0°F21.1°C 91% 7.0 mph SSE11.3 kmh SSE 16.0 mph25.7 kmh 30.12 in1020.0 mb 0.10 in2.5 mm 0.01 in0.3 mm 0.10 in2.5 mm
08:05 PM 72.4°F22.4°C 69.9°F21.1°C 92% 8.0 mph SSE12.9 kmh SSE 16.0 mph25.7 kmh 30.11 in1019.6 mb 0.11 in2.8 mm 0.12 in3.0 mm 0.11 in2.8 mm
08:10 PM 72.1°F22.3°C 70.0°F21.1°C 93% 8.0 mph SSE12.9 kmh SSE 15.0 mph24.1 kmh 30.11 in1019.6 mb 0.11 in2.8 mm 0.00 in0.0 mm 0.11 in2.8 mm
08:15 PM 72.1°F22.3°C 70.3°F21.3°C 94% 8.0 mph SSE12.9 kmh SSE 15.0 mph24.1 kmh 30.11 in1019.6 mb 0.12 in3.0 mm 0.12 in3.0 mm 0.12 in3.0 mm
08:20 PM 72.1°F22.3°C 70.3°F21.3°C 94% 8.0 mph SSE12.9 kmh SSE 14.0 mph22.5 kmh 30.10 in1019.3 mb 0.12 in3.0 mm 0.00 in0.0 mm 0.12 in3.0 mm
08:25 PM 72.1°F22.3°C 70.3°F21.3°C 94% 7.0 mph S11.3 kmh S 12.0 mph19.3 kmh 30.09 in1019.0 mb 0.13 in3.3 mm 0.12 in3.0 mm 0.13 in3.3 mm
08:30 PM 72.1°F22.3°C 70.3°F21.3°C 94% 5.0 mph S8.0 kmh S 10.0 mph16.1 kmh 30.09 in1019.0 mb 0.13 in3.3 mm 0.00 in0.0 mm 0.13 in3.3 mm
08:35 PM 72.2°F22.3°C 70.4°F21.3°C 94% 3.0 mph S4.8 kmh S 9.0 mph14.5 kmh 30.09 in1019.0 mb 0.14 in3.6 mm 0.12 in3.0 mm 0.14 in3.6 mm
08:40 PM 72.3°F22.4°C 70.8°F21.6°C 95% 2.0 mph S3.2 kmh S 5.0 mph8.0 kmh 30.09 in1019.0 mb 0.14 in3.6 mm 0.00 in0.0 mm 0.14 in3.6 mm
08:45 PM 72.2°F22.3°C 70.7°F21.5°C 95% 1.0 mph SSW1.6 kmh SSW 3.0 mph4.8 kmh 30.09 in1019.0 mb 0.09 in2.3 mm 0.00 in0.0 mm 0.15 in3.8 mm
08:50 PM 72.3°F22.4°C 70.8°F21.6°C 95% Calm Calm 2.0 mph3.2 kmh 30.09 in1019.0 mb 0.08 in2.0 mm 0.00 in0.0 mm 0.16 in4.1 mm
08:55 PM 72.3°F22.4°C 70.8°F21.6°C 95% Calm Calm 1.0 mph1.6 kmh 30.09 in1019.0 mb 0.08 in2.0 mm 0.00 in0.0 mm 0.17 in4.3 mm
09:00 PM 72.4°F22.4°C 70.9°F21.6°C 95% 1.0 mph SSW1.6 kmh SSW 3.0 mph4.8 kmh 30.09 in1019.0 mb 0.08 in2.0 mm 0.00 in0.0 mm 0.18 in4.6 mm
09:05 PM 72.4°F22.4°C 71.2°F21.8°C 96% 1.0 mph SSW1.6 kmh SSW 3.0 mph4.8 kmh 30.09 in1019.0 mb 0.09 in2.3 mm 0.12 in3.0 mm 0.20 in5.1 mm
09:10 PM 72.4°F22.4°C 71.2°F21.8°C 96% 1.0 mph SSW1.6 kmh SSW 3.0 mph4.8 kmh 30.09 in1019.0 mb 0.10 in2.5 mm 0.12 in3.0 mm 0.21 in5.3 mm
09:15 PM 72.4°F22.4°C 71.2°F21.8°C 96% 1.0 mph SSW1.6 kmh SSW 3.0 mph4.8 kmh 30.09 in1019.0 mb 0.10 in2.5 mm 0.00 in0.0 mm 0.22 in5.6 mm
09:20 PM 72.4°F22.4°C 71.2°F21.8°C 96% 1.0 mph SSW1.6 kmh SSW 3.0 mph4.8 kmh 30.09 in1019.0 mb 0.11 in2.8 mm 0.12 in3.0 mm 0.23 in5.8 mm
09:25 PM 72.5°F22.5°C 71.3°F21.8°C 96% 1.0 mph SSW1.6 kmh SSW 2.0 mph3.2 kmh 30.09 in1019.0 mb 0.11 in2.8 mm 0.00 in0.0 mm 0.24 in6.1 mm
09:30 PM 72.6°F22.6°C 71.4°F21.9°C 96% 1.0 mph SSW1.6 kmh SSW 2.0 mph3.2 kmh 30.09 in1019.0 mb 0.11 in2.8 mm 0.00 in0.0 mm 0.24 in6.1 mm
09:35 PM 72.6°F22.6°C 71.4°F21.9°C 96% 1.0 mph SSW1.6 kmh SSW 2.0 mph3.2 kmh 30.09 in1019.0 mb 0.11 in2.8 mm 0.00 in0.0 mm 0.25 in6.4 mm
09:40 PM 72.7°F22.6°C 71.5°F21.9°C 96% 1.0 mph SSW1.6 kmh SSW 3.0 mph4.8 kmh 30.09 in1019.0 mb 0.12 in3.0 mm 0.12 in3.0 mm 0.26 in6.6 mm
09:45 PM 72.7°F22.6°C 71.5°F21.9°C 96% 2.0 mph SSW3.2 kmh SSW 5.0 mph8.0 kmh 30.09 in1019.0 mb 0.12 in3.0 mm 0.00 in0.0 mm 0.27 in6.9 mm
09:50 PM 72.7°F22.6°C 71.5°F21.9°C 96% 1.0 mph SW1.6 kmh SW 5.0 mph8.0 kmh 30.09 in1019.0 mb 0.11 in2.8 mm 0.00 in0.0 mm 0.27 in6.9 mm
09:55 PM 72.8°F22.7°C 71.6°F22.0°C 96% 1.0 mph NW1.6 kmh NW 3.0 mph4.8 kmh 30.09 in1019.0 mb 0.11 in2.8 mm 0.00 in0.0 mm 0.28 in7.1 mm
10:00 PM 72.7°F22.6°C 71.5°F21.9°C 96% 1.0 mph NNW1.6 kmh NNW 3.0 mph4.8 kmh 30.09 in1019.0 mb 0.10 in2.5 mm 0.00 in0.0 mm 0.28 in7.1 mm
10:05 PM 72.7°F22.6°C 71.5°F21.9°C 96% 1.0 mph NNW1.6 kmh NNW 2.0 mph3.2 kmh 30.09 in1019.0 mb 0.09 in2.3 mm 0.00 in0.0 mm 0.29 in7.4 mm
10:10 PM 72.8°F22.7°C 71.6°F22.0°C 96% 1.0 mph NNW1.6 kmh NNW 3.0 mph4.8 kmh 30.09 in1019.0 mb 0.08 in2.0 mm 0.00 in0.0 mm 0.29 in7.4 mm
10:15 PM 72.9°F22.7°C 71.7°F22.1°C 96% 1.0 mph NNW1.6 kmh NNW 3.0 mph4.8 kmh 30.09 in1019.0 mb 0.07 in1.8 mm 0.00 in0.0 mm 0.29 in7.4 mm
10:20 PM 72.8°F22.7°C 71.6°F22.0°C 96% 1.0 mph NNW1.6 kmh NNW 3.0 mph4.8 kmh 30.09 in1019.0 mb 0.06 in1.5 mm 0.00 in0.0 mm 0.29 in7.4 mm
10:25 PM 72.9°F22.7°C 71.7°F22.1°C 96% 1.0 mph NNW1.6 kmh NNW 3.0 mph4.8 kmh 30.09 in1019.0 mb 0.06 in1.5 mm 0.00 in0.0 mm 0.30 in7.6 mm
10:30 PM 73.0°F22.8°C 71.8°F22.1°C 96% 1.0 mph NNW1.6 kmh NNW 3.0 mph4.8 kmh 30.09 in1019.0 mb 0.06 in1.5 mm 0.00 in0.0 mm 0.30 in7.6 mm
10:35 PM 73.0°F22.8°C 71.8°F22.1°C 96% 1.0 mph NNW1.6 kmh NNW 4.0 mph6.4 kmh 30.08 in1018.6 mb 0.05 in1.3 mm 0.00 in0.0 mm 0.30 in7.6 mm
10:40 PM 73.0°F22.8°C 71.8°F22.1°C 96% 1.0 mph NNW1.6 kmh NNW 4.0 mph6.4 kmh 30.08 in1018.6 mb 0.04 in1.0 mm 0.00 in0.0 mm 0.30 in7.6 mm
10:45 PM 73.0°F22.8°C 71.8°F22.1°C 96% 1.0 mph NNW1.6 kmh NNW 3.0 mph4.8 kmh 30.07 in1018.3 mb 0.03 in0.8 mm 0.00 in0.0 mm 0.30 in7.6 mm
10:50 PM 73.0°F22.8°C 71.8°F22.1°C 96% 1.0 mph NNW1.6 kmh NNW 3.0 mph4.8 kmh 30.07 in1018.3 mb 0.02 in0.5 mm 0.00 in0.0 mm 0.30 in7.6 mm
10:55 PM 73.0°F22.8°C 71.8°F22.1°C 96% 1.0 mph NNW1.6 kmh NNW 3.0 mph4.8 kmh 30.07 in1018.3 mb 0.02 in0.5 mm 0.00 in0.0 mm 0.30 in7.6 mm
11:00 PM 73.0°F22.8°C 71.8°F22.1°C 96% 1.0 mph NNW1.6 kmh NNW 3.0 mph4.8 kmh 30.07 in1018.3 mb 0.02 in0.5 mm 0.00 in0.0 mm 0.18 in4.6 mm
11:05 PM 73.0°F22.8°C 72.1°F22.3°C 97% Calm Calm 2.0 mph3.2 kmh 30.07 in1018.3 mb 0.01 in0.3 mm 0.00 in0.0 mm 0.18 in4.6 mm
11:10 PM 73.1°F22.8°C 72.2°F22.3°C 97% Calm Calm 2.0 mph3.2 kmh 30.07 in1018.3 mb 0.01 in0.3 mm 0.00 in0.0 mm 0.18 in4.6 mm
11:15 PM 73.1°F22.8°C 72.2°F22.3°C 97% Calm Calm 2.0 mph3.2 kmh 30.07 in1018.3 mb 0.01 in0.3 mm 0.00 in0.0 mm 0.18 in4.6 mm
11:20 PM 73.2°F22.9°C 72.3°F22.4°C 97% Calm Calm 1.0 mph1.6 kmh 30.07 in1018.3 mb 0.01 in0.3 mm 0.00 in0.0 mm 0.18 in4.6 mm
11:25 PM 73.2°F22.9°C 72.3°F22.4°C 97% Calm Calm 1.0 mph1.6 kmh 30.07 in1018.3 mb 0.00 in0.0 mm 0.00 in0.0 mm 0.18 in4.6 mm
11:30 PM 73.2°F22.9°C 72.3°F22.4°C 97% Calm Calm 2.0 mph3.2 kmh 30.07 in1018.3 mb 0.00 in0.0 mm 0.00 in0.0 mm 0.18 in4.6 mm
11:35 PM 73.2°F22.9°C 72.3°F22.4°C 97% 1.0 mph NNW1.6 kmh NNW 2.0 mph3.2 kmh 30.07 in1018.3 mb 0.00 in0.0 mm 0.00 in0.0 mm 0.18 in4.6 mm
11:40 PM 73.3°F22.9°C 72.4°F22.4°C 97% 1.0 mph NNW1.6 kmh NNW 2.0 mph3.2 kmh 30.07 in1018.3 mb 0.00 in0.0 mm 0.00 in0.0 mm 0.18 in4.6 mm
11:45 PM 73.3°F22.9°C 72.4°F22.4°C 97% Calm Calm 1.0 mph1.6 kmh 30.07 in1018.3 mb 0.00 in0.0 mm 0.00 in0.0 mm 0.18 in4.6 mm
11:50 PM 73.3°F22.9°C 72.4°F22.4°C 97% 1.0 mph NNW1.6 kmh NNW 3.0 mph4.8 kmh 30.08 in1018.6 mb 0.00 in0.0 mm 0.00 in0.0 mm 0.18 in4.6 mm
11:55 PM 73.3°F22.9°C 72.4°F22.4°C 97% 2.0 mph NNW3.2 kmh NNW 3.0 mph4.8 kmh 30.08 in1018.6 mb 0.00 in0.0 mm 0.00 in0.0 mm 0.18 in4.6 mm